sensor_id;sensor_type;location;lat;lon;timestamp;temperature;humidity
85164;DHT22;75530;49.300;6.846;2024-01-30T07:22:25;39.40;99.90
85164;DHT22;75530;49.300;6.846;2024-01-30T07:25:26;38.70;99.90
85164;DHT22;75530;49.300;6.846;2024-01-30T07:28:30;43.30;99.90
85164;DHT22;75530;49.300;6.846;2024-01-30T07:31:31;42.00;99.90
85164;DHT22;75530;49.300;6.846;2024-01-30T07:34:31;40.20;99.90
85164;DHT22;75530;49.300;6.846;2024-01-30T07:37:32;39.20;99.90
85164;DHT22;75530;49.300;6.846;2024-01-30T07:40:32;38.50;99.90
85164;DHT22;75530;49.300;6.846;2024-01-30T07:43:33;43.20;99.90
85164;DHT22;75530;49.300;6.846;2024-01-30T07:46:34;42.00;99.90
85164;DHT22;75530;49.300;6.846;2024-01-30T07:49:34;39.80;99.90
85164;DHT22;75530;49.300;6.846;2024-01-30T07:52:34;40.60;99.90
85164;DHT22;75530;49.300;6.846;2024-01-30T07:55:35;42.80;99.90
85164;DHT22;75530;49.300;6.846;2024-01-30T07:58:36;40.20;99.90
85164;DHT22;75530;49.300;6.846;2024-01-30T08:01:37;40.50;99.90
85164;DHT22;75530;49.300;6.846;2024-01-30T08:04:38;43.30;99.90
85164;DHT22;75530;49.300;6.846;2024-01-30T08:07:38;41.00;99.90
85164;DHT22;75530;49.300;6.846;2024-01-30T08:10:39;39.70;99.90
85164;DHT22;75530;49.300;6.846;2024-01-30T08:13:39;38.70;99.90
85164;DHT22;75530;49.300;6.846;2024-01-30T08:16:40;38.80;99.90
85164;DHT22;75530;49.300;6.846;2024-01-30T08:19:40;43.40;99.90
85164;DHT22;75530;49.300;6.846;2024-01-30T08:22:40;41.50;99.90
85164;DHT22;75530;49.300;6.846;2024-01-30T08:25:41;40.10;99.90
85164;DHT22;75530;49.300;6.846;2024-01-30T08:28:41;39.20;99.90
85164;DHT22;75530;49.300;6.846;2024-01-30T08:31:42;38.30;99.90
85164;DHT22;75530;49.300;6.846;2024-01-30T08:34:42;37.90;99.90
85164;DHT22;75530;49.300;6.846;2024-01-30T08:37:43;42.50;99.90
85164;DHT22;75530;49.300;6.846;2024-01-30T08:40:43;39.60;99.90
85164;DHT22;75530;49.300;6.846;2024-01-30T08:43:44;38.20;99.90
85164;DHT22;75530;49.300;6.846;2024-01-30T08:46:45;42.40;99.90
85164;DHT22;75530;49.300;6.846;2024-01-30T08:49:45;40.30;99.90
85164;DHT22;75530;49.300;6.846;2024-01-30T08:52:46;39.10;99.90
85164;DHT22;75530;49.300;6.846;2024-01-30T08:55:46;38.20;99.90
85164;DHT22;75530;49.300;6.846;2024-01-30T08:58:46;37.40;99.90
85164;DHT22;75530;49.300;6.846;2024-01-30T09:01:47;42.10;99.90
85164;DHT22;75530;49.300;6.846;2024-01-30T09:04:48;41.50;99.90
85164;DHT22;75530;49.300;6.846;2024-01-30T09:07:49;39.70;99.90
85164;DHT22;75530;49.300;6.846;2024-01-30T09:10:50;38.90;99.90
85164;DHT22;75530;49.300;6.846;2024-01-30T09:13:50;38.00;99.90
85164;DHT22;75530;49.300;6.846;2024-01-30T09:16:50;37.20;99.90
85164;DHT22;75530;49.300;6.846;2024-01-30T09:19:51;36.70;99.90
85164;DHT22;75530;49.300;6.846;2024-01-30T09:22:51;42.20;99.90
85164;DHT22;75530;49.300;6.846;2024-01-30T09:25:52;41.30;99.90
85164;DHT22;75530;49.300;6.846;2024-01-30T09:28:52;39.50;99.90
85164;DHT22;75530;49.300;6.846;2024-01-30T09:31:53;38.70;99.90
85164;DHT22;75530;49.300;6.846;2024-01-30T09:34:54;38.00;99.90
85164;DHT22;75530;49.300;6.846;2024-01-30T09:37:54;37.20;99.90
85164;DHT22;75530;49.300;6.846;2024-01-30T09:40:55;36.40;99.90
85164;DHT22;75530;49.300;6.846;2024-01-30T09:43:58;36.00;99.90
85164;DHT22;75530;49.300;6.846;2024-01-30T09:46:59;41.90;99.90
85164;DHT22;75530;49.300;6.846;2024-01-30T09:50:03;41.00;99.90
85164;DHT22;75530;49.300;6.846;2024-01-30T09:53:06;39.10;99.90
85164;DHT22;75530;49.300;6.846;2024-01-30T09:56:08;38.30;99.90
85164;DHT22;75530;49.300;6.846;2024-01-30T09:59:09;37.50;99.90
85164;DHT22;75530;49.300;6.846;2024-01-30T10:02:10;36.80;99.90
85164;DHT22;75530;49.300;6.846;2024-01-30T10:05:10;36.00;99.90
85164;DHT22;75530;49.300;6.846;2024-01-30T10:08:11;35.40;99.90
85164;DHT22;75530;49.300;6.846;2024-01-30T10:11:12;41.40;99.90
85164;DHT22;75530;49.300;6.846;2024-01-30T10:14:12;40.90;99.90
85164;DHT22;75530;49.300;6.846;2024-01-30T10:17:13;38.80;99.90
85164;DHT22;75530;49.300;6.846;2024-01-30T10:20:13;38.00;99.90
85164;DHT22;75530;49.300;6.846;2024-01-30T10:23:14;37.30;99.90
85164;DHT22;75530;49.300;6.846;2024-01-30T10:26:15;36.50;99.90
85164;DHT22;75530;49.300;6.846;2024-01-30T10:29:17;35.70;99.90
85164;DHT22;75530;49.300;6.846;2024-01-30T10:32:18;35.10;99.90
85164;DHT22;75530;49.300;6.846;2024-01-30T10:35:19;34.40;99.90
85164;DHT22;75530;49.300;6.846;2024-01-30T10:38:20;39.80;99.90
85164;DHT22;75530;49.300;6.846;2024-01-30T10:41:24;41.30;99.90
85164;DHT22;75530;49.300;6.846;2024-01-30T10:44:26;39.10;99.90
85164;DHT22;75530;49.300;6.846;2024-01-30T10:47:30;38.20;99.90
85164;DHT22;75530;49.300;6.846;2024-01-30T10:50:30;37.60;99.90
85164;DHT22;75530;49.300;6.846;2024-01-30T10:53:31;36.90;99.90
85164;DHT22;75530;49.300;6.846;2024-01-30T10:56:32;36.30;99.90
85164;DHT22;75530;49.300;6.846;2024-01-30T10:59:33;35.60;99.90
85164;DHT22;75530;49.300;6.846;2024-01-30T11:02:34;35.00;99.90
85164;DHT22;75530;49.300;6.846;2024-01-30T11:05:35;34.50;99.90
85164;DHT22;75530;49.300;6.846;2024-01-30T11:08:35;33.90;99.90
85164;DHT22;75530;49.300;6.846;2024-01-30T11:11:51;33.30;99.90
85164;DHT22;75530;49.300;6.846;2024-01-30T11:15:08;33.60;99.90
85164;DHT22;75530;49.300;6.846;2024-01-30T11:18:09;41.40;99.90
85164;DHT22;75530;49.300;6.846;2024-01-30T11:21:09;39.80;99.90
85164;DHT22;75530;49.300;6.846;2024-01-30T11:24:14;38.20;99.90
85164;DHT22;75530;49.300;6.846;2024-01-30T11:27:14;37.70;99.90
85164;DHT22;75530;49.300;6.846;2024-01-30T11:33:28;36.40;99.90
85164;DHT22;75530;49.300;6.846;2024-01-30T11:36:30;35.80;99.90
85164;DHT22;75530;49.300;6.846;2024-01-30T11:39:32;35.10;99.90
85164;DHT22;75530;49.300;6.846;2024-01-30T11:42:32;34.60;99.90
85164;DHT22;75530;49.300;6.846;2024-01-30T11:45:35;33.90;99.90
85164;DHT22;75530;49.300;6.846;2024-01-30T11:48:35;33.40;99.90
85164;DHT22;75530;49.300;6.846;2024-01-30T11:51:36;32.80;99.90
85164;DHT22;75530;49.300;6.846;2024-01-30T11:54:39;32.30;99.90
85164;DHT22;75530;49.300;6.846;2024-01-30T11:57:40;32.40;99.90
85164;DHT22;75530;49.300;6.846;2024-01-30T12:00:40;40.20;99.90
85164;DHT22;75530;49.300;6.846;2024-01-30T12:03:40;40.00;99.90
85164;DHT22;75530;49.300;6.846;2024-01-30T12:06:41;37.90;99.90
85164;DHT22;75530;49.300;6.846;2024-01-30T12:09:41;37.20;99.90
85164;DHT22;75530;49.300;6.846;2024-01-30T12:12:42;36.70;99.90
85164;DHT22;75530;49.300;6.846;2024-01-30T12:15:43;36.00;99.90
85164;DHT22;75530;49.300;6.846;2024-01-30T12:18:44;35.30;99.90
85164;DHT22;75530;49.300;6.846;2024-01-30T12:21:44;34.70;99.90
85164;DHT22;75530;49.300;6.846;2024-01-30T12:24:44;34.00;99.90
85164;DHT22;75530;49.300;6.846;2024-01-30T12:27:49;33.40;99.90
85164;DHT22;75530;49.300;6.846;2024-01-30T12:30:56;32.80;99.90
85164;DHT22;75530;49.300;6.846;2024-01-30T12:33:59;32.30;99.90
85164;DHT22;75530;49.300;6.846;2024-01-30T12:36:59;31.80;99.90
85164;DHT22;75530;49.300;6.846;2024-01-30T12:40:00;31.30;99.90
85164;DHT22;75530;49.300;6.846;2024-01-30T12:43:00;37.20;99.90
85164;DHT22;75530;49.300;6.846;2024-01-30T12:46:01;40.60;99.90
85164;DHT22;75530;49.300;6.846;2024-01-30T12:49:02;38.00;99.90
85164;DHT22;75530;49.300;6.846;2024-01-30T12:52:03;37.10;99.90
85164;DHT22;75530;49.300;6.846;2024-01-30T12:55:04;36.60;99.90
85164;DHT22;75530;49.300;6.846;2024-01-30T12:58:04;35.90;99.90
85164;DHT22;75530;49.300;6.846;2024-01-30T13:01:06;35.30;99.90
85164;DHT22;75530;49.300;6.846;2024-01-30T13:04:06;34.60;99.90
85164;DHT22;75530;49.300;6.846;2024-01-30T13:07:07;33.90;99.90
85164;DHT22;75530;49.300;6.846;2024-01-30T13:10:07;33.30;99.90
85164;DHT22;75530;49.300;6.846;2024-01-30T13:13:07;32.70;99.90
85164;DHT22;75530;49.300;6.846;2024-01-30T13:16:09;32.20;99.90
85164;DHT22;75530;49.300;6.846;2024-01-30T13:19:10;31.60;99.90
85164;DHT22;75530;49.300;6.846;2024-01-30T13:22:10;31.50;99.90
85164;DHT22;75530;49.300;6.846;2024-01-30T13:25:11;38.70;99.90
85164;DHT22;75530;49.300;6.846;2024-01-30T13:28:11;40.00;99.90
85164;DHT22;75530;49.300;6.846;2024-01-30T13:31:15;37.70;99.90
85164;DHT22;75530;49.300;6.846;2024-01-30T13:34:15;37.00;99.90
85164;DHT22;75530;49.300;6.846;2024-01-30T13:37:16;36.30;99.90
85164;DHT22;75530;49.300;6.846;2024-01-30T13:40:16;35.60;99.90
85164;DHT22;75530;49.300;6.846;2024-01-30T13:43:17;34.90;99.90
85164;DHT22;75530;49.300;6.846;2024-01-30T13:46:18;34.20;99.90
85164;DHT22;75530;49.300;6.846;2024-01-30T13:49:18;33.60;99.90
85164;DHT22;75530;49.300;6.846;2024-01-30T13:52:19;33.00;99.90
85164;DHT22;75530;49.300;6.846;2024-01-30T13:55:19;32.30;99.90
85164;DHT22;75530;49.300;6.846;2024-01-30T13:58:19;31.80;99.90
85164;DHT22;75530;49.300;6.846;2024-01-30T14:01:20;31.50;99.90
85164;DHT22;75530;49.300;6.846;2024-01-30T14:04:20;38.10;99.90
85164;DHT22;75530;49.300;6.846;2024-01-30T14:07:21;40.50;99.90
85164;DHT22;75530;49.300;6.846;2024-01-30T14:10:22;37.90;99.90
85164;DHT22;75530;49.300;6.846;2024-01-30T14:13:22;37.00;99.90
85164;DHT22;75530;49.300;6.846;2024-01-30T14:16:23;36.30;99.90
85164;DHT22;75530;49.300;6.846;2024-01-30T14:19:24;35.60;99.90
85164;DHT22;75530;49.300;6.846;2024-01-30T14:22:25;34.90;99.90
85164;DHT22;75530;49.300;6.846;2024-01-30T14:25:25;34.30;99.90
85164;DHT22;75530;49.300;6.846;2024-01-30T14:28:25;33.60;99.90
85164;DHT22;75530;49.300;6.846;2024-01-30T14:31:26;33.00;99.90
85164;DHT22;75530;49.300;6.846;2024-01-30T14:34:26;32.50;99.90
85164;DHT22;75530;49.300;6.846;2024-01-30T14:37:27;31.90;99.90
85164;DHT22;75530;49.300;6.846;2024-01-30T14:40:30;31.40;99.90
85164;DHT22;75530;49.300;6.846;2024-01-30T14:43:31;33.30;99.90
85164;DHT22;75530;49.300;6.846;2024-01-30T14:46:31;40.70;99.90
85164;DHT22;75530;49.300;6.846;2024-01-30T14:49:32;38.80;99.90
85164;DHT22;75530;49.300;6.846;2024-01-30T14:52:33;37.50;99.90
85164;DHT22;75530;49.300;6.846;2024-01-30T14:55:33;36.90;99.90
85164;DHT22;75530;49.300;6.846;2024-01-30T14:58:34;36.20;99.90
85164;DHT22;75530;49.300;6.846;2024-01-30T15:01:34;35.50;99.90
85164;DHT22;75530;49.300;6.846;2024-01-30T15:04:35;34.90;99.90
85164;DHT22;75530;49.300;6.846;2024-01-30T15:07:35;34.20;99.90
85164;DHT22;75530;49.300;6.846;2024-01-30T15:10:35;33.50;99.90
85164;DHT22;75530;49.300;6.846;2024-01-30T15:13:36;32.90;99.90
85164;DHT22;75530;49.300;6.846;2024-01-30T15:16:36;32.40;99.90
85164;DHT22;75530;49.300;6.846;2024-01-30T15:19:37;31.80;99.90
85164;DHT22;75530;49.300;6.846;2024-01-30T15:22:37;31.60;99.90
85164;DHT22;75530;49.300;6.846;2024-01-30T15:25:40;37.90;99.90
85164;DHT22;75530;49.300;6.846;2024-01-30T15:28:40;40.00;99.90
85164;DHT22;75530;49.300;6.846;2024-01-30T15:31:41;38.10;99.90
85164;DHT22;75530;49.300;6.846;2024-01-30T15:34:41;37.20;99.90
85164;DHT22;75530;49.300;6.846;2024-01-30T15:37:42;36.50;99.90
85164;DHT22;75530;49.300;6.846;2024-01-30T15:40:42;35.80;99.90
85164;DHT22;75530;49.300;6.846;2024-01-30T15:43:43;35.10;99.90
85164;DHT22;75530;49.300;6.846;2024-01-30T15:46:43;34.30;99.90
85164;DHT22;75530;49.300;6.846;2024-01-30T15:49:44;33.70;99.90
85164;DHT22;75530;49.300;6.846;2024-01-30T15:52:44;33.10;99.90
85164;DHT22;75530;49.300;6.846;2024-01-30T15:55:44;32.40;99.90
85164;DHT22;75530;49.300;6.846;2024-01-30T15:58:45;31.90;99.90
85164;DHT22;75530;49.300;6.846;2024-01-30T16:01:49;31.40;99.90
85164;DHT22;75530;49.300;6.846;2024-01-30T16:04:50;32.50;99.90
85164;DHT22;75530;49.300;6.846;2024-01-30T16:07:50;40.40;99.90
85164;DHT22;75530;49.300;6.846;2024-01-30T16:10:51;39.40;99.90
85164;DHT22;75530;49.300;6.846;2024-01-30T16:13:51;38.00;99.90
85164;DHT22;75530;49.300;6.846;2024-01-30T16:16:52;37.40;99.90
85164;DHT22;75530;49.300;6.846;2024-01-30T16:19:53;36.80;99.90
85164;DHT22;75530;49.300;6.846;2024-01-30T16:22:53;36.00;99.90
85164;DHT22;75530;49.300;6.846;2024-01-30T16:25:55;35.30;99.90
85164;DHT22;75530;49.300;6.846;2024-01-30T16:28:56;34.60;99.90
85164;DHT22;75530;49.300;6.846;2024-01-30T16:31:57;33.90;99.90
85164;DHT22;75530;49.300;6.846;2024-01-30T16:34:58;33.30;99.90
85164;DHT22;75530;49.300;6.846;2024-01-30T16:37:58;32.70;99.90
85164;DHT22;75530;49.300;6.846;2024-01-30T16:40:59;32.20;99.90
85164;DHT22;75530;49.300;6.846;2024-01-30T16:43:59;31.70;99.90
85164;DHT22;75530;49.300;6.846;2024-01-30T16:47:00;34.80;99.90
85164;DHT22;75530;49.300;6.846;2024-01-30T16:50:00;41.00;99.90
85164;DHT22;75530;49.300;6.846;2024-01-30T16:53:01;38.60;99.90
85164;DHT22;75530;49.300;6.846;2024-01-30T16:56:01;37.50;99.90
85164;DHT22;75530;49.300;6.846;2024-01-30T16:59:02;36.80;99.90
85164;DHT22;75530;49.300;6.846;2024-01-30T17:02:02;36.00;99.90
85164;DHT22;75530;49.300;6.846;2024-01-30T17:05:03;35.30;99.90
85164;DHT22;75530;49.300;6.846;2024-01-30T17:08:04;34.50;99.90
85164;DHT22;75530;49.300;6.846;2024-01-30T17:11:05;33.90;99.90
85164;DHT22;75530;49.300;6.846;2024-01-30T17:14:05;33.20;99.90
85164;DHT22;75530;49.300;6.846;2024-01-30T17:17:06;32.70;99.90
85164;DHT22;75530;49.300;6.846;2024-01-30T17:20:07;32.20;99.90
85164;DHT22;75530;49.300;6.846;2024-01-30T17:23:07;33.20;99.90
85164;DHT22;75530;49.300;6.846;2024-01-30T17:26:09;40.90;99.90
85164;DHT22;75530;49.300;6.846;2024-01-30T17:29:10;39.50;99.90
85164;DHT22;75530;49.300;6.846;2024-01-30T17:32:11;38.00;99.90
85164;DHT22;75530;49.300;6.846;2024-01-30T17:35:12;37.40;99.90
85164;DHT22;75530;49.300;6.846;2024-01-30T17:38:12;36.90;99.90
85164;DHT22;75530;49.300;6.846;2024-01-30T17:41:12;36.40;99.90
85164;DHT22;75530;49.300;6.846;2024-01-30T17:44:13;35.80;99.90
85164;DHT22;75530;49.300;6.846;2024-01-30T17:47:14;35.30;99.90
85164;DHT22;75530;49.300;6.846;2024-01-30T17:50:15;34.70;99.90
85164;DHT22;75530;49.300;6.846;2024-01-30T17:53:16;34.20;99.90
85164;DHT22;75530;49.300;6.846;2024-01-30T17:56:17;33.70;99.90
85164;DHT22;75530;49.300;6.846;2024-01-30T17:59:18;33.20;99.90
85164;DHT22;75530;49.300;6.846;2024-01-30T18:02:21;32.80;99.90
85164;DHT22;75530;49.300;6.846;2024-01-30T18:05:21;32.40;99.90
85164;DHT22;75530;49.300;6.846;2024-01-30T18:08:22;31.90;99.90
85164;DHT22;75530;49.300;6.846;2024-01-30T18:11:25;37.70;99.90
85164;DHT22;75530;49.300;6.846;2024-01-30T18:14:26;41.10;99.90
85164;DHT22;75530;49.300;6.846;2024-01-30T18:17:26;38.60;99.90
85164;DHT22;75530;49.300;6.846;2024-01-30T18:20:27;37.90;99.90
85164;DHT22;75530;49.300;6.846;2024-01-30T18:23:27;37.40;99.90
85164;DHT22;75530;49.300;6.846;2024-01-30T18:26:28;36.90;99.90
85164;DHT22;75530;49.300;6.846;2024-01-30T18:29:28;36.40;99.90
85164;DHT22;75530;49.300;6.846;2024-01-30T18:32:29;35.80;99.90
85164;DHT22;75530;49.300;6.846;2024-01-30T18:35:29;35.30;99.90
85164;DHT22;75530;49.300;6.846;2024-01-30T18:38:30;34.70;99.90
85164;DHT22;75530;49.300;6.846;2024-01-30T18:41:30;34.20;99.90
85164;DHT22;75530;49.300;6.846;2024-01-30T18:44:31;33.80;99.90
85164;DHT22;75530;49.300;6.846;2024-01-30T18:47:31;33.20;99.90
85164;DHT22;75530;49.300;6.846;2024-01-30T18:50:32;32.70;99.90
85164;DHT22;75530;49.300;6.846;2024-01-30T18:53:32;32.30;99.90
85164;DHT22;75530;49.300;6.846;2024-01-30T18:56:32;32.00;99.90
85164;DHT22;75530;49.300;6.846;2024-01-30T18:59:33;38.20;99.90
85164;DHT22;75530;49.300;6.846;2024-01-30T19:02:33;41.40;99.90
85164;DHT22;75530;49.300;6.846;2024-01-30T19:05:34;50.10;99.90
85164;DHT22;75530;49.300;6.846;2024-01-30T19:08:34;56.50;99.90
85164;DHT22;75530;49.300;6.846;2024-01-30T19:11:36;55.80;99.90
85164;DHT22;75530;49.300;6.846;2024-01-30T19:14:37;53.30;99.90
85164;DHT22;75530;49.300;6.846;2024-01-30T19:17:37;51.70;99.90
85164;DHT22;75530;49.300;6.846;2024-01-30T19:20:38;55.70;99.90
85164;DHT22;75530;49.300;6.846;2024-01-30T19:23:38;56.70;99.90
85164;DHT22;75530;49.300;6.846;2024-01-30T19:26:39;54.90;99.90
85164;DHT22;75530;49.300;6.846;2024-01-30T19:29:39;52.80;99.90
85164;DHT22;75530;49.300;6.846;2024-01-30T19:32:40;51.50;99.90
85164;DHT22;75530;49.300;6.846;2024-01-30T19:35:40;55.30;99.90
85164;DHT22;75530;49.300;6.846;2024-01-30T19:38:41;56.70;99.90
85164;DHT22;75530;49.300;6.846;2024-01-30T19:41:41;55.90;99.90
85164;DHT22;75530;49.300;6.846;2024-01-30T19:44:45;45.10;99.90
85164;DHT22;75530;49.300;6.846;2024-01-30T19:47:45;41.70;99.90
85164;DHT22;75530;49.300;6.846;2024-01-30T19:50:46;40.90;99.90
85164;DHT22;75530;49.300;6.846;2024-01-30T19:53:46;40.40;99.90
85164;DHT22;75530;49.300;6.846;2024-01-30T19:56:46;39.70;99.90
85164;DHT22;75530;49.300;6.846;2024-01-30T19:59:47;38.90;99.90
85164;DHT22;75530;49.300;6.846;2024-01-30T20:02:48;38.10;99.90
85164;DHT22;75530;49.300;6.846;2024-01-30T20:05:48;37.40;99.90
85164;DHT22;75530;49.300;6.846;2024-01-30T20:08:49;36.70;99.90
85164;DHT22;75530;49.300;6.846;2024-01-30T20:11:50;36.00;99.90
85164;DHT22;75530;49.300;6.846;2024-01-30T20:14:50;35.40;99.90
85164;DHT22;75530;49.300;6.846;2024-01-30T20:17:51;34.80;99.90
85164;DHT22;75530;49.300;6.846;2024-01-30T20:20:51;34.20;99.90
85164;DHT22;75530;49.300;6.846;2024-01-30T20:23:53;33.70;99.90
85164;DHT22;75530;49.300;6.846;2024-01-30T20:26:53;33.20;99.90
85164;DHT22;75530;49.300;6.846;2024-01-30T20:29:54;32.80;99.90
85164;DHT22;75530;49.300;6.846;2024-01-30T20:32:55;32.30;99.90
85164;DHT22;75530;49.300;6.846;2024-01-30T20:35:55;31.80;99.90
85164;DHT22;75530;49.300;6.846;2024-01-30T20:38:56;31.40;99.90
85164;DHT22;75530;49.300;6.846;2024-01-30T20:41:56;31.00;99.90
85164;DHT22;75530;49.300;6.846;2024-01-30T20:44:57;30.60;99.90
85164;DHT22;75530;49.300;6.846;2024-01-30T20:47:57;30.30;99.90
85164;DHT22;75530;49.300;6.846;2024-01-30T20:50:58;29.90;99.90
85164;DHT22;75530;49.300;6.846;2024-01-30T20:53:58;29.60;99.90
85164;DHT22;75530;49.300;6.846;2024-01-30T20:56:59;29.30;99.90
85164;DHT22;75530;49.300;6.846;2024-01-30T20:59:59;28.90;99.90
85164;DHT22;75530;49.300;6.846;2024-01-30T21:02:59;28.60;99.90
85164;DHT22;75530;49.300;6.846;2024-01-30T21:06:00;28.30;99.90
85164;DHT22;75530;49.300;6.846;2024-01-30T21:09:00;28.00;99.90
85164;DHT22;75530;49.300;6.846;2024-01-30T21:12:03;27.80;99.90
85164;DHT22;75530;49.300;6.846;2024-01-30T21:15:03;27.50;99.90
85164;DHT22;75530;49.300;6.846;2024-01-30T21:18:05;27.30;99.90
85164;DHT22;75530;49.300;6.846;2024-01-30T21:21:08;27.00;99.90
85164;DHT22;75530;49.300;6.846;2024-01-30T21:24:09;26.80;99.90
85164;DHT22;75530;49.300;6.846;2024-01-30T21:27:09;26.60;99.90
85164;DHT22;75530;49.300;6.846;2024-01-30T21:30:10;26.40;99.90
85164;DHT22;75530;49.300;6.846;2024-01-30T21:33:10;26.20;99.90
85164;DHT22;75530;49.300;6.846;2024-01-30T21:36:11;25.90;99.90
85164;DHT22;75530;49.300;6.846;2024-01-30T21:39:11;25.70;99.90
85164;DHT22;75530;49.300;6.846;2024-01-30T21:42:11;25.50;99.90
85164;DHT22;75530;49.300;6.846;2024-01-30T21:45:12;25.30;99.90
85164;DHT22;75530;49.300;6.846;2024-01-30T21:48:13;25.10;99.90
85164;DHT22;75530;49.300;6.846;2024-01-30T21:51:13;24.90;99.90
85164;DHT22;75530;49.300;6.846;2024-01-30T21:54:13;24.70;99.90
85164;DHT22;75530;49.300;6.846;2024-01-30T21:57:14;24.50;99.90
85164;DHT22;75530;49.300;6.846;2024-01-30T22:00:15;24.30;99.90
85164;DHT22;75530;49.300;6.846;2024-01-30T22:03:15;24.10;99.90
85164;DHT22;75530;49.300;6.846;2024-01-30T22:06:16;24.00;99.90
85164;DHT22;75530;49.300;6.846;2024-01-30T22:09:16;23.80;99.90
85164;DHT22;75530;49.300;6.846;2024-01-30T22:12:17;23.70;99.90
85164;DHT22;75530;49.300;6.846;2024-01-30T22:15:17;23.60;99.90
85164;DHT22;75530;49.300;6.846;2024-01-30T22:18:18;23.40;99.90
85164;DHT22;75530;49.300;6.846;2024-01-30T22:21:19;23.30;99.90
85164;DHT22;75530;49.300;6.846;2024-01-30T22:24:19;23.20;99.90
85164;DHT22;75530;49.300;6.846;2024-01-30T22:27:19;23.00;99.90
85164;DHT22;75530;49.300;6.846;2024-01-30T22:30:20;22.90;99.90
85164;DHT22;75530;49.300;6.846;2024-01-30T22:33:21;22.80;99.90
85164;DHT22;75530;49.300;6.846;2024-01-30T22:36:23;22.70;99.90
85164;DHT22;75530;49.300;6.846;2024-01-30T22:39:24;22.60;99.90
85164;DHT22;75530;49.300;6.846;2024-01-30T22:42:24;22.50;99.90
85164;DHT22;75530;49.300;6.846;2024-01-30T22:45:24;22.40;99.90
85164;DHT22;75530;49.300;6.846;2024-01-30T22:48:25;22.40;99.90
85164;DHT22;75530;49.300;6.846;2024-01-30T22:51:25;22.30;99.90
85164;DHT22;75530;49.300;6.846;2024-01-30T22:54:26;22.20;99.90
85164;DHT22;75530;49.300;6.846;2024-01-30T22:57:26;22.10;99.90
85164;DHT22;75530;49.300;6.846;2024-01-30T23:00:27;22.10;99.90
85164;DHT22;75530;49.300;6.846;2024-01-30T23:03:28;22.00;99.90
85164;DHT22;75530;49.300;6.846;2024-01-30T23:06:29;21.90;99.90
85164;DHT22;75530;49.300;6.846;2024-01-30T23:09:29;21.90;99.90
85164;DHT22;75530;49.300;6.846;2024-01-30T23:12:29;21.80;99.90
85164;DHT22;75530;49.300;6.846;2024-01-30T23:15:30;21.80;99.90
85164;DHT22;75530;49.300;6.846;2024-01-30T23:18:30;21.70;99.90
85164;DHT22;75530;49.300;6.846;2024-01-30T23:21:31;21.60;99.90
85164;DHT22;75530;49.300;6.846;2024-01-30T23:24:31;21.50;99.90
85164;DHT22;75530;49.300;6.846;2024-01-30T23:27:32;21.50;99.90
85164;DHT22;75530;49.300;6.846;2024-01-30T23:30:32;21.50;99.90
85164;DHT22;75530;49.300;6.846;2024-01-30T23:33:33;21.40;99.90
85164;DHT22;75530;49.300;6.846;2024-01-30T23:36:38;21.30;99.90
85164;DHT22;75530;49.300;6.846;2024-01-30T23:39:38;21.30;99.90
85164;DHT22;75530;49.300;6.846;2024-01-30T23:42:40;21.30;99.90
85164;DHT22;75530;49.300;6.846;2024-01-30T23:45:40;21.20;99.90
85164;DHT22;75530;49.300;6.846;2024-01-30T23:48:41;22.70;99.90
85164;DHT22;75530;49.300;6.846;2024-01-30T23:51:41;30.80;99.90
85164;DHT22;75530;49.300;6.846;2024-01-30T23:54:42;38.20;99.90
85164;DHT22;75530;49.300;6.846;2024-01-30T23:57:42;40.70;99.90
